Hill Air Force Base
KHIF : now visible

Airfield :











YOU CAN JOIN US ON...

 
LOGIN :

Register | Disclaimer

   EN    FR    IT 

 









Legend :    VFR   Marginal VFR   IFR   Intensive IFR   Very Intensive IFR
Visi :
Ceiling :
>= 8 km
>= 3000ft
5 to 8 km
1000 to 3000 ft
1500m to 5 km
500 to 1000 ft
800 to 1500m
200 to 500 ft
< 800m
< 200 ft
Symbols :   Thunderstorms  Fog  Heavy snow  Heavy precipitations  Wind > 20 kt







- Airport Elevation : 4789 ft


KHIF - Hill Air Force Base

CURRENT METAR :
  • 220523Z AUTO 15004KT 10SM OVC025 06/05 A2962 RMK AO2 SLP009

EXPIRED METARs :
  • 220356Z 16004KT 10SM BKN026 OVC055 06/04 A2962 RMK AO2A CIG 025 RWY14 SLP012 T00620042

TAF TAF KHIF
Valid from the 22 at 05:00 until the 23 at 11:00 UTC


2205/2311 17005KT 9000 -RA FEW020 OVC030 650809 QNH2960INS
BECMG 2213/2214 13009KT 9999 NSW FEW020 BKN040 QNH2964INS
BECMG 2218/2219 07010G25KT 9999 BKN040 OVC080 QNH2968INS
BECMG 2301/2302 07020G35KT 8000 -SHRA BKN030 OVC080 QNH2971INS TX12/2222Z TN05/2210Z
KZLC FIR / North America



MET'MAP, your aeronautical weather chart ! - Copyright ORBIFLY December 2007 - Disclaimer

ORBIFLY MET'MAP TEAM :

Programming & Development : Alexandra Zaïnal
Concept & Development : Baudouin d'Aumeries
Co-Development & Prog : Marc-Olivier Méhu
Technical & hardware support : Manuel Goepfert

Contact : metmap@orbifly.com




SOURCES & CREDITS :

   NOAA       Earth
Advisory